Time,TemperatureF,DewpointF,PressureIn,WindDirection,WindDirectionDegrees,WindSpeedMPH,WindSpeedGustMPH,Humidity,HourlyPrecipIn,Conditions,Clouds,dailyrainin,SoftwareType,DateUTC
2013-05-29 00:00:00,50.1,25.5,29.25,NNE,17,0.0,0.0,38,0.00,,,0.00,Wunderground v.1.15,2013-05-29 06:00:00,
2013-05-29 00:10:00,48.8,25.5,29.25,NNE,17,0.0,0.0,40,0.00,,,0.00,Wunderground v.1.15,2013-05-29 06:10:00,
2013-05-29 00:15:00,48.5,25.8,29.24,NNE,17,0.0,0.0,41,0.00,,,0.00,Wunderground v.1.15,2013-05-29 06:15:00,
2013-05-29 00:25:00,48.0,25.4,29.24,NNE,17,0.0,0.0,41,0.00,,,0.00,Wunderground v.1.15,2013-05-29 06:25:00,
2013-05-29 00:30:00,47.7,25.1,29.24,NNE,17,0.0,0.0,41,0.00,,,0.00,Wunderground v.1.15,2013-05-29 06:30:00,
2013-05-29 00:40:00,47.0,25.1,29.24,NNE,17,0.0,0.0,42,0.00,,,0.00,Wunderground v.1.15,2013-05-29 06:40:00,
2013-05-29 00:45:00,46.8,24.9,29.25,NNE,17,0.0,0.0,42,0.00,,,0.00,Wunderground v.1.15,2013-05-29 06:45:00,
2013-05-29 00:50:00,46.2,25.5,29.25,NNE,17,0.0,0.0,44,0.00,,,0.00,Wunderground v.1.15,2013-05-29 06:50:00,
2013-05-29 01:00:00,46.1,25.4,29.27,North,4,0.0,0.0,44,0.00,,,0.00,Wunderground v.1.15,2013-05-29 07:00:00,
2013-05-29 01:10:00,46.7,25.9,29.27,North,4,0.0,0.0,44,0.00,,,0.00,Wunderground v.1.15,2013-05-29 07:10:00,
2013-05-29 01:15:00,46.7,27.5,29.27,North,4,0.0,0.0,47,0.00,,,0.00,Wunderground v.1.15,2013-05-29 07:15:00,
2013-05-29 01:25:00,46.7,30.9,29.27,North,353,0.0,0.0,54,0.00,,,0.00,Wunderground v.1.15,2013-05-29 07:25:00,
2013-05-29 01:30:00,47.1,27.9,29.27,West,277,0.0,0.0,47,0.00,,,0.00,Wunderground v.1.15,2013-05-29 07:30:00,
2013-05-29 01:40:00,47.6,29.4,29.27,SW,227,0.0,0.0,49,0.00,,,0.00,Wunderground v.1.15,2013-05-29 07:40:00,
2013-05-29 01:45:00,47.6,28.9,29.27,SSW,213,0.0,0.0,48,0.00,,,0.00,Wunderground v.1.15,2013-05-29 07:45:00,
2013-05-29 01:55:00,47.1,30.4,29.27,SSW,213,0.0,0.0,52,0.00,,,0.00,Wunderground v.1.15,2013-05-29 07:55:00,
2013-05-29 02:00:00,47.0,31.2,29.29,SSW,213,0.0,0.0,54,0.00,,,0.00,Wunderground v.1.15,2013-05-29 08:00:00,
2013-05-29 02:10:00,46.4,32.8,29.29,SSW,213,0.0,0.0,59,0.00,,,0.00,Wunderground v.1.15,2013-05-29 08:10:00,
2013-05-29 02:15:00,46.4,32.8,29.29,SSW,213,0.0,0.0,59,0.00,,,0.00,Wunderground v.1.15,2013-05-29 08:15:00,
2013-05-29 02:25:00,45.5,32.0,29.29,SSW,213,0.0,0.0,59,0.00,,,0.00,Wunderground v.1.15,2013-05-29 08:25:00,
2013-05-29 02:30:00,45.2,32.1,29.31,SSW,213,0.0,0.0,60,0.00,,,0.00,Wunderground v.1.15,2013-05-29 08:30:00,
2013-05-29 02:40:00,44.1,31.9,29.31,SSW,213,0.0,0.0,62,0.00,,,0.00,Wunderground v.1.15,2013-05-29 08:40:00,
2013-05-29 02:45:00,43.5,31.7,29.32,SSW,213,0.0,0.0,63,0.00,,,0.00,Wunderground v.1.15,2013-05-29 08:45:00,
2013-05-29 02:50:00,43.2,31.8,29.32,SSW,213,0.0,0.0,64,0.00,,,0.00,Wunderground v.1.15,2013-05-29 08:50:00,
2013-05-29 03:00:00,42.3,31.4,29.33,SSW,213,0.0,0.0,65,0.00,,,0.00,Wunderground v.1.15,2013-05-29 09:00:00,
2013-05-29 03:10:00,41.9,31.7,29.33,SSW,213,0.0,0.0,67,0.00,,,0.00,Wunderground v.1.15,2013-05-29 09:10:00,
2013-05-29 03:15:00,41.8,32.0,29.33,SSW,213,0.0,0.0,68,0.00,,,0.00,Wunderground v.1.15,2013-05-29 09:15:00,
2013-05-29 03:25:00,41.6,31.8,29.33,SSW,213,0.0,0.0,68,0.00,,,0.00,Wunderground v.1.15,2013-05-29 09:25:00,
2013-05-29 03:30:00,41.3,31.9,29.35,SSW,213,0.0,0.0,69,0.00,,,0.00,Wunderground v.1.15,2013-05-29 09:30:00,
2013-05-29 03:40:00,41.2,32.2,29.35,SSW,213,0.0,0.0,70,0.00,,,0.00,Wunderground v.1.15,2013-05-29 09:40:00,
2013-05-29 03:45:00,41.3,32.2,29.34,SSW,213,0.0,0.0,70,0.00,,,0.00,Wunderground v.1.15,2013-05-29 09:45:00,
2013-05-29 03:55:00,41.3,32.2,29.34,SSW,213,0.0,0.0,70,0.00,,,0.00,Wunderground v.1.15,2013-05-29 09:55:00,
2013-05-29 04:00:00,41.5,32.8,29.34,SSW,213,0.0,0.0,71,0.00,,,0.00,Wunderground v.1.15,2013-05-29 10:00:00,
2013-05-29 04:10:00,42.3,32.8,29.34,SSW,213,0.0,0.0,69,0.00,,,0.00,Wunderground v.1.15,2013-05-29 10:10:00,
2013-05-29 04:15:00,42.9,33.1,29.32,SSW,213,0.0,0.0,68,0.00,,,0.00,Wunderground v.1.15,2013-05-29 10:15:00,
2013-05-29 04:25:00,43.2,33.3,29.32,SSW,213,0.0,0.0,68,0.00,,,0.00,Wunderground v.1.15,2013-05-29 10:25:00,
2013-05-29 04:30:00,43.2,33.3,29.30,SW,217,0.0,0.0,68,0.00,,,0.00,Wunderground v.1.15,2013-05-29 10:30:00,
2013-05-29 04:40:00,43.2,33.0,29.30,SW,217,0.0,0.0,67,0.00,,,0.00,Wunderground v.1.15,2013-05-29 10:40:00,
2013-05-29 04:45:00,43.3,32.7,29.30,SW,217,0.0,0.0,66,0.00,,,0.00,Wunderground v.1.15,2013-05-29 10:45:00,
2013-05-29 04:55:00,43.3,33.1,29.30,SW,217,0.0,0.0,67,0.00,,,0.00,Wunderground v.1.15,2013-05-29 10:55:00,
2013-05-29 05:00:00,43.3,32.7,29.30,SW,217,0.0,0.0,66,0.00,,,0.00,Wunderground v.1.15,2013-05-29 11:00:00,
2013-05-29 05:10:00,43.5,32.9,29.30,SW,217,0.0,0.0,66,0.00,,,0.00,Wunderground v.1.15,2013-05-29 11:10:00,
2013-05-29 05:15:00,43.5,32.9,29.30,SW,217,0.0,0.0,66,0.00,,,0.00,Wunderground v.1.15,2013-05-29 11:15:00,
2013-05-29 05:25:00,43.9,35.8,29.30,North,359,0.0,3.0,73,0.00,,,0.00,Wunderground v.1.15,2013-05-29 11:25:00,
2013-05-29 05:30:00,44.3,36.2,29.30,North,359,0.0,0.0,73,0.00,,,0.00,Wunderground v.1.15,2013-05-29 11:30:00,
2013-05-29 05:40:00,44.8,37.4,29.30,NE,34,0.0,0.0,75,0.00,,,0.00,Wunderground v.1.15,2013-05-29 11:40:00,
2013-05-29 05:45:00,44.8,37.7,29.29,NE,34,0.0,0.0,76,0.00,,,0.00,Wunderground v.1.15,2013-05-29 11:45:00,
2013-05-29 05:55:00,44.8,38.0,29.29,NE,34,0.0,0.0,77,0.00,,,0.01,Wunderground v.1.15,2013-05-29 11:55:00,
2013-05-29 06:00:00,44.6,38.2,29.29,NE,34,0.0,0.0,78,0.00,,,0.01,Wunderground v.1.15,2013-05-29 12:00:00,
2013-05-29 06:10:00,44.6,38.8,29.29,NE,34,0.0,0.0,80,0.00,,,0.01,Wunderground v.1.15,2013-05-29 12:10:00,
2013-05-29 06:15:00,44.5,39.3,29.29,NNW,342,0.0,0.0,82,0.00,,,0.01,Wunderground v.1.15,2013-05-29 12:15:00,
2013-05-29 06:25:00,44.1,38.3,29.29,NNW,329,0.0,0.0,80,0.00,,,0.01,Wunderground v.1.15,2013-05-29 12:25:00,
2013-05-29 06:30:00,43.8,38.0,29.31,NW,311,0.0,0.0,80,0.00,,,0.02,Wunderground v.1.15,2013-05-29 12:30:00,
2013-05-29 06:40:00,43.3,37.5,29.31,NW,306,0.0,0.0,80,0.00,,,0.02,Wunderground v.1.15,2013-05-29 12:40:00,
2013-05-29 06:45:00,43.2,37.4,29.33,NW,306,0.0,0.0,80,0.04,,,0.03,Wunderground v.1.15,2013-05-29 12:45:00,
2013-05-29 06:55:00,42.5,37.1,29.33,WSW,239,0.0,0.0,81,0.19,,,0.05,Wunderground v.1.15,2013-05-29 12:55:00,
2013-05-29 07:00:00,41.8,37.0,29.34,South,186,0.0,0.0,83,0.44,,,0.09,Wunderground v.1.15,2013-05-29 13:00:00,
2013-05-29 07:10:00,41.2,37.0,29.34,South,186,0.0,0.0,85,0.19,,,0.12,Wunderground v.1.15,2013-05-29 13:10:00,
2013-05-29 07:20:00,41.1,37.2,29.35,South,186,0.0,0.0,86,0.05,,,0.12,Wunderground v.1.15,2013-05-29 13:20:00,
2013-05-29 07:25:00,41.1,37.5,29.35,South,186,0.0,0.0,87,0.00,,,0.12,Wunderground v.1.15,2013-05-29 13:25:00,
2013-05-29 07:30:00,40.8,35.1,29.37,WNW,284,0.0,1.0,80,0.00,,,0.12,Wunderground v.1.15,2013-05-29 13:30:00,
2013-05-29 07:40:00,41.1,33.8,29.37,SW,226,1.0,1.0,75,0.00,,,0.12,Wunderground v.1.15,2013-05-29 13:40:00,
2013-05-29 07:45:00,41.1,33.8,29.37,SSW,212,0.0,1.0,75,0.00,,,0.12,Wunderground v.1.15,2013-05-29 13:45:00,
2013-05-29 07:55:00,41.2,33.9,29.37,WSW,253,0.0,0.0,75,0.00,,,0.12,Wunderground v.1.15,2013-05-29 13:55:00,
2013-05-29 08:00:00,41.3,33.3,29.36,WSW,246,0.0,0.0,73,0.00,,,0.12,Wunderground v.1.15,2013-05-29 14:00:00,
2013-05-29 08:10:00,41.3,35.6,29.36,WSW,246,0.0,0.0,80,0.00,,,0.12,Wunderground v.1.15,2013-05-29 14:10:00,
2013-05-29 08:15:00,41.3,35.9,29.35,WSW,246,0.0,0.0,81,0.00,,,0.12,Wunderground v.1.15,2013-05-29 14:15:00,
2013-05-29 08:25:00,41.2,36.1,29.35,WSW,246,0.0,0.0,82,0.00,,,0.12,Wunderground v.1.15,2013-05-29 14:25:00,
2013-05-29 08:35:00,41.2,35.5,29.37,SSW,195,1.0,2.0,80,0.00,,,0.12,Wunderground v.1.15,2013-05-29 14:35:00,
2013-05-29 08:45:00,41.8,33.4,29.37,SW,229,1.0,2.0,72,0.00,,,0.12,Wunderground v.1.15,2013-05-29 14:45:00,
2013-05-29 08:55:00,41.9,35.5,29.37,SW,229,0.0,0.0,78,0.00,,,0.12,Wunderground v.1.15,2013-05-29 14:55:00,
2013-05-29 09:00:00,41.8,36.1,29.35,SW,229,0.0,0.0,80,0.00,,,0.12,Wunderground v.1.15,2013-05-29 15:00:00,
2013-05-29 09:05:00,41.9,37.1,29.35,SW,229,0.0,0.0,83,0.00,,,0.12,Wunderground v.1.15,2013-05-29 15:05:00,
2013-05-29 09:15:00,42.2,37.4,29.35,WNW,284,0.0,0.0,83,0.00,,,0.12,Wunderground v.1.15,2013-05-29 15:15:00,
2013-05-29 09:20:00,42.3,37.2,29.35,WNW,284,0.0,0.0,82,0.00,,,0.12,Wunderground v.1.15,2013-05-29 15:20:00,
2013-05-29 09:30:00,42.5,34.8,29.35,SSW,206,0.0,0.0,74,0.00,,,0.12,Wunderground v.1.15,2013-05-29 15:30:00,
2013-05-29 09:40:00,43.8,31.6,29.35,WNW,291,3.0,6.0,62,0.00,,,0.12,Wunderground v.1.15,2013-05-29 15:40:00,
2013-05-29 09:45:00,43.3,31.1,29.34,WNW,291,6.0,24.0,62,0.00,,,0.12,Wunderground v.1.15,2013-05-29 15:45:00,
2013-05-29 09:55:00,43.5,30.1,29.34,WNW,295,5.0,13.0,59,0.00,,,0.12,Wunderground v.1.15,2013-05-29 15:55:00,
2013-05-29 10:00:00,44.3,31.3,29.34,WNW,284,5.0,5.0,60,0.00,,,0.12,Wunderground v.1.15,2013-05-29 16:00:00,
2013-05-29 10:10:00,45.7,30.9,29.34,South,172,5.0,5.0,56,0.00,,,0.12,Wunderground v.1.15,2013-05-29 16:10:00,
2013-05-29 10:15:00,47.0,33.0,29.32,NW,308,4.0,5.0,58,0.00,,,0.12,Wunderground v.1.15,2013-05-29 16:15:00,
2013-05-29 10:25:00,48.0,28.7,29.32,NW,313,4.0,12.0,47,0.00,,,0.13,Wunderground v.1.15,2013-05-29 16:25:00,
2013-05-29 10:30:00,48.5,29.2,29.34,West,280,5.0,11.0,47,0.00,,,0.13,Wunderground v.1.15,2013-05-29 16:30:00,
2013-05-29 10:40:00,49.5,27.3,29.34,North,357,4.0,5.0,42,0.00,,,0.13,Wunderground v.1.15,2013-05-29 16:40:00,
2013-05-29 10:45:00,49.8,28.2,29.32,WNW,295,4.0,10.0,43,0.00,,,0.13,Wunderground v.1.15,2013-05-29 16:45:00,
2013-05-29 10:55:00,50.7,27.8,29.32,NW,316,4.0,14.0,41,0.00,,,0.13,Wunderground v.1.15,2013-05-29 16:55:00,
2013-05-29 11:00:00,50.5,27.0,29.31,WNW,285,4.0,6.0,40,0.00,,,0.13,Wunderground v.1.15,2013-05-29 17:00:00,
2013-05-29 11:10:00,51.0,29.3,29.31,SE,128,2.0,2.0,43,0.00,,,0.13,Wunderground v.1.15,2013-05-29 17:10:00,
2013-05-29 11:15:00,51.1,29.9,29.31,South,188,1.0,2.0,44,0.00,,,0.13,Wunderground v.1.15,2013-05-29 17:15:00,
2013-05-29 11:25:00,51.3,28.4,29.31,SSW,205,4.0,4.0,41,0.00,,,0.13,Wunderground v.1.15,2013-05-29 17:25:00,
2013-05-29 11:30:00,51.3,29.0,29.34,WSW,256,4.0,5.0,42,0.00,,,0.13,Wunderground v.1.15,2013-05-29 17:30:00,
2013-05-29 11:40:00,51.3,29.5,29.34,WNW,285,4.0,4.0,43,0.00,,,0.13,Wunderground v.1.15,2013-05-29 17:40:00,
2013-05-29 11:45:00,51.3,30.7,29.34,NW,323,3.0,4.0,45,0.00,,,0.13,Wunderground v.1.15,2013-05-29 17:45:00,
2013-05-29 11:55:00,50.5,28.2,29.34,West,278,4.0,11.0,42,0.00,,,0.13,Wunderground v.1.15,2013-05-29 17:55:00,
2013-05-29 12:00:00,50.5,28.2,29.37,North,0,4.0,4.0,42,0.00,,,0.13,Wunderground v.1.15,2013-05-29 18:00:00,
2013-05-29 12:10:00,47.3,37.6,29.37,West,260,8.0,10.0,69,0.00,,,0.13,Wunderground v.1.15,2013-05-29 18:10:00,
2013-05-29 12:15:00,45.4,36.5,29.42,South,172,6.0,10.0,71,0.00,,,0.13,Wunderground v.1.15,2013-05-29 18:15:00,
2013-05-29 12:25:00,45.4,33.1,29.42,SSW,212,3.0,3.0,62,0.00,,,0.13,Wunderground v.1.15,2013-05-29 18:25:00,
2013-05-29 12:30:00,46.1,32.6,29.43,South,178,2.0,2.0,59,0.00,,,0.13,Wunderground v.1.15,2013-05-29 18:30:00,
2013-05-29 12:40:00,48.5,33.5,29.43,WSW,237,1.0,1.0,56,0.00,,,0.13,Wunderground v.1.15,2013-05-29 18:40:00,
2013-05-29 12:45:00,49.5,33.1,29.38,SW,233,1.0,1.0,53,0.00,,,0.13,Wunderground v.1.15,2013-05-29 18:45:00,
2013-05-29 12:55:00,49.4,29.5,29.38,SSW,192,3.0,3.0,46,0.00,,,0.13,Wunderground v.1.15,2013-05-29 18:55:00,
2013-05-29 13:00:00,49.8,30.4,29.40,WNW,301,2.0,5.0,47,0.00,,,0.13,Wunderground v.1.15,2013-05-29 19:00:00,
2013-05-29 13:10:00,49.4,30.5,29.40,NW,304,3.0,3.0,48,0.00,,,0.13,Wunderground v.1.15,2013-05-29 19:10:00,
2013-05-29 13:15:00,49.2,31.8,29.40,South,176,2.0,3.0,51,0.00,,,0.13,Wunderground v.1.15,2013-05-29 19:15:00,
2013-05-29 13:25:00,49.9,32.0,29.40,SW,222,1.0,2.0,50,0.00,,,0.13,Wunderground v.1.15,2013-05-29 19:25:00,
2013-05-29 13:30:00,49.6,32.2,29.40,NW,308,2.0,2.0,51,0.00,,,0.13,Wunderground v.1.15,2013-05-29 19:30:00,
2013-05-29 13:35:00,49.2,33.3,29.40,SW,232,1.0,3.0,54,0.00,,,0.13,Wunderground v.1.15,2013-05-29 19:35:00,
2013-05-29 13:45:00,46.4,34.1,29.43,SSE,148,3.0,3.0,62,0.00,,,0.13,Wunderground v.1.15,2013-05-29 19:45:00,
2013-05-29 13:55:00,47.9,34.3,29.43,North,0,1.0,1.0,59,0.00,,,0.13,Wunderground v.1.15,2013-05-29 19:55:00,
2013-05-29 14:00:00,49.1,33.2,29.40,SSE,155,1.0,1.0,54,0.00,,,0.13,Wunderground v.1.15,2013-05-29 20:00:00,
2013-05-29 14:10:00,51.0,31.5,29.40,North,359,1.0,1.0,47,0.00,,,0.13,Wunderground v.1.15,2013-05-29 20:10:00,
2013-05-29 14:15:00,52.2,33.1,29.37,WSW,254,1.0,1.0,48,0.00,,,0.13,Wunderground v.1.15,2013-05-29 20:15:00,
2013-05-29 14:25:00,52.2,32.6,29.37,SW,216,1.0,1.0,47,0.00,,,0.14,Wunderground v.1.15,2013-05-29 20:25:00,
2013-05-29 14:30:00,52.2,33.1,29.39,NE,34,1.0,1.0,48,0.00,,,0.14,Wunderground v.1.15,2013-05-29 20:30:00,
2013-05-29 14:40:00,52.2,33.6,29.39,West,281,0.0,0.0,49,0.00,,,0.14,Wunderground v.1.15,2013-05-29 20:40:00,
2013-05-29 14:45:00,52.0,30.2,29.39,SW,223,1.0,1.0,43,0.00,,,0.14,Wunderground v.1.15,2013-05-29 20:45:00,
2013-05-29 14:55:00,52.8,29.1,29.39,WNW,284,1.0,8.0,40,0.00,,,0.14,Wunderground v.1.15,2013-05-29 20:55:00,
2013-05-29 15:00:00,53.3,30.2,29.39,West,281,2.0,3.0,41,0.00,,,0.14,Wunderground v.1.15,2013-05-29 21:00:00,
2013-05-29 15:10:00,54.4,27.3,29.39,WNW,292,2.0,3.0,35,0.00,,,0.14,Wunderground v.1.15,2013-05-29 21:10:00,
2013-05-29 15:15:00,54.1,28.4,29.38,North,349,2.0,3.0,37,0.00,,,0.14,Wunderground v.1.15,2013-05-29 21:15:00,
2013-05-29 15:25:00,52.0,27.8,29.38,SW,233,2.0,2.0,39,0.00,,,0.14,Wunderground v.1.15,2013-05-29 21:25:00,
2013-05-29 15:30:00,51.6,27.4,29.40,SSW,205,1.0,1.0,39,0.00,,,0.14,Wunderground v.1.15,2013-05-29 21:30:00,
2013-05-29 15:35:00,52.0,27.1,29.40,North,0,1.0,1.0,38,0.00,,,0.14,Wunderground v.1.15,2013-05-29 21:35:00,
2013-05-29 15:45:00,53.6,29.2,29.38,West,272,1.0,2.0,39,0.00,,,0.14,Wunderground v.1.15,2013-05-29 21:45:00,
2013-05-29 15:55:00,53.5,27.8,29.38,South,189,2.0,2.0,37,0.00,,,0.14,Wunderground v.1.15,2013-05-29 21:55:00,
2013-05-29 16:00:00,52.8,27.2,29.37,South,191,2.0,2.0,37,0.00,,,0.14,Wunderground v.1.15,2013-05-29 22:00:00,
2013-05-29 16:10:00,52.2,28.0,29.37,WNW,284,2.0,9.0,39,0.00,,,0.14,Wunderground v.1.15,2013-05-29 22:10:00,
2013-05-29 16:15:00,52.3,31.0,29.40,NNW,329,4.0,11.0,44,0.00,,,0.14,Wunderground v.1.15,2013-05-29 22:15:00,
2013-05-29 16:25:00,53.2,28.2,29.40,WNW,288,2.0,4.0,38,0.00,,,0.14,Wunderground v.1.15,2013-05-29 22:25:00,
2013-05-29 16:30:00,53.6,28.6,29.34,SW,224,2.0,2.0,38,0.00,,,0.14,Wunderground v.1.15,2013-05-29 22:30:00,
2013-05-29 16:35:00,53.9,28.8,29.34,West,277,2.0,10.0,38,0.00,,,0.14,Wunderground v.1.15,2013-05-29 22:35:00,
2013-05-29 16:40:00,53.6,28.6,29.34,West,270,3.0,6.0,38,0.00,,,0.14,Wunderground v.1.15,2013-05-29 22:40:00,
2013-05-29 16:50:00,53.3,30.2,29.34,WNW,284,4.0,7.0,41,0.00,,,0.14,Wunderground v.1.15,2013-05-29 22:50:00,
2013-05-29 17:00:00,51.9,27.1,29.37,ESE,110,4.0,4.0,38,0.00,,,0.14,Wunderground v.1.15,2013-05-29 23:00:00,
2013-05-29 17:10:00,49.9,27.7,29.37,West,260,3.0,3.0,42,0.00,,,0.14,Wunderground v.1.15,2013-05-29 23:10:00,
2013-05-29 17:15:00,48.3,29.5,29.40,WNW,287,4.0,4.0,48,0.00,,,0.14,Wunderground v.1.15,2013-05-29 23:15:00,
2013-05-29 17:20:00,47.1,33.5,29.40,South,182,3.0,3.0,59,0.00,,,0.14,Wunderground v.1.15,2013-05-29 23:20:00,
2013-05-29 17:30:00,46.7,31.8,29.41,SW,229,2.0,2.0,56,0.00,,,0.14,Wunderground v.1.15,2013-05-29 23:30:00,
2013-05-29 17:40:00,46.8,33.6,29.41,South,184,3.0,3.0,60,0.00,,,0.14,Wunderground v.1.15,2013-05-29 23:40:00,
2013-05-29 17:45:00,45.5,34.4,29.45,West,267,3.0,3.0,65,0.00,,,0.15,Wunderground v.1.15,2013-05-29 23:45:00,
2013-05-29 17:55:00,43.6,33.7,29.45,SSW,199,2.0,2.0,68,0.00,,,0.15,Wunderground v.1.15,2013-05-29 23:55:00,
2013-05-29 18:00:00,42.9,34.5,29.49,SSW,202,1.0,7.0,72,0.00,,,0.15,Wunderground v.1.15,2013-05-30 00:00:00,
2013-05-29 18:05:00,42.1,33.0,29.49,SSW,199,2.0,7.0,70,0.00,,,0.16,Wunderground v.1.15,2013-05-30 00:05:00,
2013-05-29 18:10:00,42.1,31.6,29.49,SSE,158,4.0,8.0,66,0.00,,,0.16,Wunderground v.1.15,2013-05-30 00:10:00,
2013-05-29 18:15:00,42.8,30.3,29.49,WNW,285,4.0,8.0,61,0.00,,,0.16,Wunderground v.1.15,2013-05-30 00:15:00,
2013-05-29 18:20:00,44.2,29.5,29.49,South,181,4.0,4.0,56,0.00,,,0.16,Wunderground v.1.15,2013-05-30 00:20:00,
2013-05-29 18:30:00,46.1,29.4,29.47,SE,124,3.0,3.0,52,0.00,,,0.16,Wunderground v.1.15,2013-05-30 00:30:00,
2013-05-29 18:40:00,47.1,30.4,29.47,West,280,2.0,2.0,52,0.00,,,0.16,Wunderground v.1.15,2013-05-30 00:40:00,
2013-05-29 18:45:00,47.6,29.9,29.44,WNW,288,1.0,2.0,50,0.00,,,0.16,Wunderground v.1.15,2013-05-30 00:45:00,
2013-05-29 18:50:00,48.3,29.0,29.44,SE,144,1.0,1.0,47,0.00,,,0.16,Wunderground v.1.15,2013-05-30 00:50:00,
2013-05-29 19:00:00,48.6,29.3,29.43,West,277,1.0,1.0,47,0.00,,,0.16,Wunderground v.1.15,2013-05-30 01:00:00,
2013-05-29 19:10:00,48.6,27.6,29.43,West,261,2.0,2.0,44,0.00,,,0.16,Wunderground v.1.15,2013-05-30 01:10:00,
2013-05-29 19:15:00,48.6,28.2,29.42,SSW,209,2.0,2.0,45,0.00,,,0.16,Wunderground v.1.15,2013-05-30 01:15:00,
2013-05-29 19:20:00,48.8,28.9,29.42,SE,126,1.0,1.0,46,0.00,,,0.16,Wunderground v.1.15,2013-05-30 01:20:00,
2013-05-29 19:30:00,48.5,28.6,29.44,NNW,328,2.0,2.0,46,0.00,,,0.16,Wunderground v.1.15,2013-05-30 01:30:00,
2013-05-29 19:40:00,47.1,27.9,29.44,South,184,2.0,2.0,47,0.00,,,0.16,Wunderground v.1.15,2013-05-30 01:40:00,
2013-05-29 19:45:00,46.5,27.3,29.45,South,181,1.0,2.0,47,0.00,,,0.16,Wunderground v.1.15,2013-05-30 01:45:00,
2013-05-29 19:50:00,46.4,27.2,29.45,South,185,1.0,1.0,47,0.00,,,0.16,Wunderground v.1.15,2013-05-30 01:50:00,
2013-05-29 20:00:00,46.1,28.0,29.48,WNW,292,3.0,3.0,49,0.00,,,0.16,Wunderground v.1.15,2013-05-30 02:00:00,
2013-05-29 20:10:00,45.1,29.9,29.48,NNW,329,2.0,6.0,55,0.00,,,0.16,Wunderground v.1.15,2013-05-30 02:10:00,
2013-05-29 20:15:00,44.1,31.9,29.50,North,0,3.0,6.0,62,0.00,,,0.16,Wunderground v.1.15,2013-05-30 02:15:00,
2013-05-29 20:25:00,41.6,32.5,29.50,NW,322,2.0,3.0,70,0.00,,,0.16,Wunderground v.1.15,2013-05-30 02:25:00,
2013-05-29 20:30:00,41.2,32.5,29.53,NNW,342,2.0,5.0,71,0.00,,,0.16,Wunderground v.1.15,2013-05-30 02:30:00,
2013-05-29 20:40:00,40.9,30.8,29.53,SSE,164,1.0,1.0,67,0.00,,,0.16,Wunderground v.1.15,2013-05-30 02:40:00,
2013-05-29 20:45:00,41.8,28.9,29.53,SSW,210,2.0,7.0,60,0.00,,,0.16,Wunderground v.1.15,2013-05-30 02:45:00,
2013-05-29 20:55:00,42.9,28.3,29.53,West,274,2.0,5.0,56,0.00,,,0.16,Wunderground v.1.15,2013-05-30 02:55:00,
2013-05-29 21:00:00,43.3,27.3,29.53,SSW,193,2.0,2.0,53,0.00,,,0.16,Wunderground v.1.15,2013-05-30 03:00:00,
2013-05-29 21:10:00,43.9,27.4,29.53,WNW,284,3.0,11.0,52,0.00,,,0.16,Wunderground v.1.15,2013-05-30 03:10:00,
2013-05-29 21:15:00,43.9,26.4,29.52,SSW,208,3.0,11.0,50,0.00,,,0.16,Wunderground v.1.15,2013-05-30 03:15:00,
2013-05-29 21:25:00,43.6,27.6,29.52,WNW,298,4.0,16.0,53,0.00,,,0.16,Wunderground v.1.15,2013-05-30 03:25:00,
2013-05-29 21:30:00,43.6,28.0,29.49,SSE,152,6.0,6.0,54,0.00,,,0.16,Wunderground v.1.15,2013-05-30 03:30:00,
2013-05-29 21:40:00,43.6,28.5,29.49,WNW,287,3.0,14.0,55,0.00,,,0.16,Wunderground v.1.15,2013-05-30 03:40:00,
2013-05-29 21:45:00,43.6,28.9,29.50,NW,322,3.0,14.0,56,0.00,,,0.16,Wunderground v.1.15,2013-05-30 03:45:00,
2013-05-29 21:55:00,43.9,28.3,29.50,South,176,2.0,10.0,54,0.00,,,0.16,Wunderground v.1.15,2013-05-30 03:55:00,
2013-05-29 22:00:00,44.1,28.5,29.51,WSW,246,4.0,4.0,54,0.00,,,0.16,Wunderground v.1.15,2013-05-30 04:00:00,
2013-05-29 22:05:00,44.1,29.4,29.51,SW,223,5.0,5.0,56,0.00,,,0.16,Wunderground v.1.15,2013-05-30 04:05:00,
2013-05-29 22:10:00,43.5,30.5,29.51,SSW,213,4.0,4.0,60,0.00,,,0.16,Wunderground v.1.15,2013-05-30 04:10:00,
2013-05-29 22:15:00,42.6,31.3,29.52,West,275,4.0,4.0,64,0.00,,,0.16,Wunderground v.1.15,2013-05-30 04:15:00,
2013-05-29 22:25:00,42.1,29.2,29.52,WNW,291,2.0,2.0,60,0.00,,,0.16,Wunderground v.1.15,2013-05-30 04:25:00,
2013-05-29 22:30:00,42.3,28.6,29.50,WNW,291,2.0,5.0,58,0.00,,,0.16,Wunderground v.1.15,2013-05-30 04:30:00,
2013-05-29 22:40:00,43.1,28.5,29.50,SE,145,2.0,2.0,56,0.00,,,0.17,Wunderground v.1.15,2013-05-30 04:40:00,
2013-05-29 22:45:00,43.2,28.5,29.48,SSW,199,3.0,5.0,56,0.00,,,0.17,Wunderground v.1.15,2013-05-30 04:45:00,
2013-05-29 22:55:00,43.3,27.3,29.48,East,90,5.0,11.0,53,0.00,,,0.17,Wunderground v.1.15,2013-05-30 04:55:00,
2013-05-29 23:00:00,43.5,27.5,29.48,SSW,213,5.0,5.0,53,0.00,,,0.17,Wunderground v.1.15,2013-05-30 05:00:00,
2013-05-29 23:10:00,43.3,28.2,29.48,SE,144,5.0,7.0,55,0.00,,,0.17,Wunderground v.1.15,2013-05-30 05:10:00,
2013-05-29 23:15:00,43.2,28.1,29.47,WNW,292,7.0,11.0,55,0.00,,,0.17,Wunderground v.1.15,2013-05-30 05:15:00,
2013-05-29 23:25:00,43.5,27.5,29.47,SSW,198,6.0,6.0,53,0.00,,,0.17,Wunderground v.1.15,2013-05-30 05:25:00,
2013-05-29 23:30:00,43.8,26.8,29.50,South,184,5.0,5.0,51,0.00,,,0.17,Wunderground v.1.15,2013-05-30 05:30:00,
2013-05-29 23:40:00,43.8,26.8,29.50,West,263,5.0,5.0,51,0.00,,,0.17,Wunderground v.1.15,2013-05-30 05:40:00,
2013-05-29 23:45:00,43.9,26.9,29.49,South,169,6.0,10.0,51,0.00,,,0.17,Wunderground v.1.15,2013-05-30 05:45:00,
2013-05-29 23:55:00,43.9,26.0,29.49,SE,137,6.0,10.0,49,0.00,,,0.17,Wunderground v.1.15,2013-05-30 05:55:00,